createdAt,value
2022-10-31T00:00:37.529Z,997.66
2022-10-31T00:01:38.449Z,997.68
2022-10-31T00:02:37.522Z,997.76
2022-10-31T00:03:37.425Z,997.79
2022-10-31T00:04:37.423Z,997.76
2022-10-31T00:05:37.406Z,997.73
2022-10-31T00:06:37.412Z,997.77
2022-10-31T00:07:37.389Z,997.74
2022-10-31T00:08:37.386Z,997.81
2022-10-31T00:09:37.388Z,997.78
2022-10-31T00:10:37.367Z,997.77
2022-10-31T00:11:37.370Z,997.69
2022-10-31T00:12:37.350Z,997.80
2022-10-31T00:13:37.348Z,997.76
2022-10-31T00:14:37.342Z,997.78
2022-10-31T00:15:37.335Z,997.80
2022-10-31T00:16:37.335Z,997.82
2022-10-31T00:17:37.318Z,997.84
2022-10-31T00:18:37.303Z,997.83
2022-10-31T00:19:37.342Z,997.86
2022-10-31T00:20:37.290Z,997.85
2022-10-31T00:21:37.284Z,997.86
2022-10-31T00:22:37.320Z,997.85
2022-10-31T00:23:37.262Z,997.89
2022-10-31T00:24:37.268Z,997.86
2022-10-31T00:25:37.248Z,997.86
2022-10-31T00:26:37.241Z,997.82
2022-10-31T00:27:37.270Z,997.88
2022-10-31T00:29:36.952Z,997.85
2022-10-31T00:30:36.945Z,997.86
2022-10-31T00:31:36.942Z,997.88
2022-10-31T00:32:36.935Z,997.85
2022-10-31T00:33:38.014Z,997.85
2022-10-31T00:34:38.019Z,997.91
2022-10-31T00:35:38.008Z,997.90
2022-10-31T00:36:37.995Z,997.85
2022-10-31T00:37:37.992Z,997.86
2022-10-31T00:38:37.979Z,997.90
2022-10-31T00:39:37.986Z,997.84
2022-10-31T00:40:37.985Z,997.86
2022-10-31T00:41:37.951Z,997.82
2022-10-31T00:42:37.956Z,997.92
2022-10-31T00:43:37.937Z,997.90
2022-10-31T00:44:37.933Z,997.92
2022-10-31T00:45:37.921Z,997.89
2022-10-31T00:46:37.915Z,997.88
2022-10-31T00:47:37.929Z,997.85
2022-10-31T00:48:37.896Z,997.92
2022-10-31T00:49:37.901Z,997.90
2022-10-31T00:50:37.882Z,997.84
2022-10-31T00:51:37.874Z,997.96
2022-10-31T00:52:37.861Z,997.97
2022-10-31T00:53:37.871Z,997.95
2022-10-31T00:54:37.858Z,997.95
2022-10-31T00:55:37.838Z,997.98
2022-10-31T00:56:37.828Z,998.07
2022-10-31T00:57:37.833Z,998.03
2022-10-31T00:58:37.826Z,998.09
2022-10-31T00:59:37.836Z,998.00
2022-10-31T01:00:37.804Z,998.07
2022-10-31T01:01:37.921Z,998.10
2022-10-31T01:02:37.993Z,998.11
2022-10-31T01:03:37.777Z,998.06
2022-10-31T01:04:37.766Z,998.04
2022-10-31T01:05:37.762Z,998.00
2022-10-31T01:06:37.749Z,997.99
2022-10-31T01:07:37.740Z,998.03
2022-10-31T01:08:37.741Z,998.04
2022-10-31T01:09:37.719Z,998.01
2022-10-31T01:10:37.740Z,998.07
2022-10-31T01:11:37.709Z,998.07
2022-10-31T01:12:37.699Z,998.04
2022-10-31T01:13:37.795Z,998.05
2022-10-31T01:14:37.681Z,998.09
2022-10-31T01:15:37.679Z,998.04
2022-10-31T01:16:37.665Z,998.14
2022-10-31T01:17:37.672Z,998.10
2022-10-31T01:18:37.654Z,998.12
2022-10-31T01:19:37.654Z,998.12
2022-10-31T01:20:37.633Z,998.11
2022-10-31T01:21:37.623Z,998.09
2022-10-31T01:22:37.622Z,998.08
2022-10-31T01:23:37.624Z,998.07
2022-10-31T01:24:37.601Z,998.05
2022-10-31T01:25:37.602Z,998.08
2022-10-31T01:26:37.603Z,998.09
2022-10-31T01:27:37.577Z,998.12
2022-10-31T01:28:37.582Z,998.11
2022-10-31T01:29:37.568Z,998.11
2022-10-31T01:30:37.557Z,998.09
2022-10-31T01:31:37.553Z,998.05
2022-10-31T01:32:37.544Z,998.11
2022-10-31T01:33:37.542Z,998.08
2022-10-31T01:34:37.531Z,998.06
2022-10-31T01:35:37.518Z,998.07
2022-10-31T01:36:37.511Z,998.09
2022-10-31T01:37:37.500Z,998.07
2022-10-31T01:38:37.496Z,998.07
2022-10-31T01:39:37.490Z,998.01
2022-10-31T01:40:37.478Z,998.01
2022-10-31T01:41:37.470Z,998.06
2022-10-31T01:42:37.461Z,998.05
2022-10-31T01:43:38.204Z,998.05
2022-10-31T01:44:37.460Z,997.95
2022-10-31T01:45:37.446Z,997.98
2022-10-31T01:46:37.437Z,998.01
2022-10-31T01:47:37.431Z,998.10
2022-10-31T01:48:37.412Z,998.08
2022-10-31T01:49:37.409Z,998.06
2022-10-31T01:50:38.122Z,998.06
2022-10-31T01:51:37.385Z,998.12
2022-10-31T01:52:37.384Z,998.15
2022-10-31T01:53:37.378Z,998.09
2022-10-31T01:54:37.365Z,998.15
2022-10-31T01:55:37.363Z,998.14
2022-10-31T01:56:37.366Z,998.12
2022-10-31T01:58:44.474Z,998.11
2022-10-31T01:59:43.628Z,998.12
2022-10-31T02:00:43.648Z,998.11
2022-10-31T02:01:44.855Z,998.12
2022-10-31T02:02:45.522Z,998.09
2022-10-31T02:03:44.689Z,998.13
2022-10-31T02:04:44.677Z,998.07
2022-10-31T02:05:44.670Z,998.06
2022-10-31T02:06:44.664Z,998.09
2022-10-31T02:07:44.656Z,998.09
2022-10-31T02:08:44.643Z,998.13
2022-10-31T02:09:44.634Z,998.13
2022-10-31T02:10:45.489Z,998.15
2022-10-31T02:11:44.624Z,998.09
2022-10-31T02:12:44.610Z,998.13
2022-10-31T02:13:44.603Z,998.14
2022-10-31T02:14:44.597Z,998.17
2022-10-31T02:15:44.596Z,998.16
2022-10-31T02:16:44.577Z,998.15
2022-10-31T02:17:44.570Z,998.19
2022-10-31T02:18:44.570Z,998.12
2022-10-31T02:19:44.554Z,998.12
2022-10-31T02:20:44.544Z,998.17
2022-10-31T02:21:45.540Z,998.14
2022-10-31T02:22:44.533Z,998.12
2022-10-31T02:23:47.818Z,998.15
2022-10-31T02:24:45.550Z,998.13
2022-10-31T02:25:44.518Z,998.15
2022-10-31T02:26:44.504Z,998.14
2022-10-31T02:27:44.504Z,998.16
2022-10-31T02:28:44.487Z,998.18
2022-10-31T02:29:44.478Z,998.17
2022-10-31T02:30:44.483Z,998.19
2022-10-31T02:31:45.465Z,998.16
2022-10-31T02:32:44.449Z,998.16
2022-10-31T02:33:45.449Z,998.15
2022-10-31T02:34:44.443Z,998.14
2022-10-31T02:35:44.436Z,998.15
2022-10-31T02:36:44.439Z,998.15
2022-10-31T02:37:44.422Z,998.22
2022-10-31T02:38:44.414Z,998.20
2022-10-31T02:39:44.402Z,998.18
2022-10-31T02:40:44.398Z,998.17
2022-10-31T02:41:44.396Z,998.15
2022-10-31T02:42:44.384Z,998.18
2022-10-31T02:43:44.395Z,998.15
2022-10-31T02:44:44.369Z,998.20
2022-10-31T02:45:44.356Z,998.18
2022-10-31T02:46:44.362Z,998.17
2022-10-31T02:47:44.354Z,998.22
2022-10-31T02:48:44.366Z,998.16
2022-10-31T02:49:44.328Z,998.19
2022-10-31T02:50:44.328Z,998.19
2022-10-31T02:51:44.309Z,998.17
2022-10-31T02:52:44.302Z,998.19
2022-10-31T02:53:44.303Z,998.19
2022-10-31T02:54:44.295Z,998.18
2022-10-31T02:55:44.285Z,998.13
2022-10-31T02:56:44.274Z,998.15
2022-10-31T02:57:44.262Z,998.09
2022-10-31T02:58:44.266Z,998.14
2022-10-31T02:59:44.249Z,998.17
2022-10-31T03:00:45.916Z,998.19
2022-10-31T03:01:44.412Z,998.23
2022-10-31T03:02:44.321Z,998.25
2022-10-31T03:03:44.216Z,998.18
2022-10-31T03:04:44.223Z,998.12
2022-10-31T03:05:44.214Z,998.13
2022-10-31T03:06:45.110Z,998.09
2022-10-31T03:07:44.183Z,998.13
2022-10-31T03:08:44.178Z,998.05
2022-10-31T03:09:44.171Z,998.03
2022-10-31T03:10:44.162Z,998.07
2022-10-31T03:11:44.150Z,998.04
2022-10-31T03:12:47.708Z,998.03
2022-10-31T03:13:44.128Z,998.04
2022-10-31T03:14:44.147Z,998.05
2022-10-31T03:15:44.114Z,998.11
2022-10-31T03:16:44.112Z,998.03
2022-10-31T03:17:44.097Z,997.98
2022-10-31T03:18:44.096Z,998.05
2022-10-31T03:19:44.600Z,998.06
2022-10-31T03:20:44.579Z,998.03
2022-10-31T03:21:45.074Z,998.09
2022-10-31T03:22:44.062Z,998.08
2022-10-31T03:23:44.066Z,998.06
2022-10-31T03:24:44.061Z,998.07
2022-10-31T03:25:44.039Z,998.16
2022-10-31T03:26:44.032Z,998.20
2022-10-31T03:27:44.013Z,998.20
2022-10-31T03:28:45.021Z,998.13
2022-10-31T03:29:44.016Z,998.08
2022-10-31T03:30:43.995Z,998.15
2022-10-31T03:31:43.994Z,998.17
2022-10-31T03:32:44.580Z,998.13
2022-10-31T03:33:44.001Z,998.12
2022-10-31T03:34:43.960Z,998.12
2022-10-31T03:35:44.964Z,998.12
2022-10-31T03:36:43.957Z,998.03
2022-10-31T03:37:43.988Z,998.09
2022-10-31T03:38:43.940Z,998.03
2022-10-31T03:39:43.926Z,998.04
2022-10-31T03:40:43.940Z,998.02
2022-10-31T03:41:43.913Z,998.04
2022-10-31T03:42:43.911Z,998.03
2022-10-31T03:43:43.896Z,998.08
2022-10-31T03:44:43.888Z,998.08
2022-10-31T03:45:43.928Z,998.11
2022-10-31T03:46:43.875Z,998.05
2022-10-31T03:47:43.860Z,998.03
2022-10-31T03:48:43.850Z,998.09
2022-10-31T03:49:43.852Z,998.12
2022-10-31T03:50:43.843Z,998.10
2022-10-31T03:51:43.828Z,998.07
2022-10-31T03:52:43.852Z,998.06
2022-10-31T03:53:43.848Z,998.07
2022-10-31T03:54:43.814Z,998.07
2022-10-31T03:55:43.793Z,998.11
2022-10-31T03:56:43.785Z,998.14
2022-10-31T03:57:43.782Z,998.11
2022-10-31T03:58:44.511Z,998.14
2022-10-31T03:59:43.769Z,998.13
2022-10-31T04:00:43.761Z,998.10
2022-10-31T04:01:43.858Z,998.11
2022-10-31T04:02:43.864Z,998.09
2022-10-31T04:03:43.728Z,998.11
2022-10-31T04:04:43.721Z,998.14
2022-10-31T04:05:43.722Z,998.10
2022-10-31T04:06:43.714Z,998.14
2022-10-31T04:07:43.693Z,998.11
2022-10-31T04:08:43.689Z,998.10
2022-10-31T04:09:43.697Z,998.11
2022-10-31T04:10:43.689Z,998.19
2022-10-31T04:11:43.721Z,998.15
2022-10-31T04:12:43.657Z,998.18
2022-10-31T04:13:43.656Z,998.13
2022-10-31T04:14:43.647Z,998.07
2022-10-31T04:15:43.643Z,998.05
2022-10-31T04:16:43.641Z,998.09
2022-10-31T04:17:43.627Z,998.06
2022-10-31T04:18:43.607Z,998.06
2022-10-31T04:19:44.597Z,998.06
2022-10-31T04:20:43.591Z,998.04
2022-10-31T04:21:44.590Z,998.03
2022-10-31T04:22:43.574Z,998.04
2022-10-31T04:23:44.598Z,998.04
2022-10-31T04:24:43.570Z,998.07
2022-10-31T04:25:43.550Z,998.06
2022-10-31T04:26:43.555Z,998.08
2022-10-31T04:27:43.532Z,998.04
2022-10-31T04:28:43.554Z,998.05
2022-10-31T04:29:45.643Z,998.08
2022-10-31T04:30:44.521Z,998.07
2022-10-31T04:31:43.516Z,998.03
2022-10-31T04:32:44.104Z,997.99
2022-10-31T04:33:43.495Z,998.04
2022-10-31T04:34:44.477Z,997.99
2022-10-31T04:35:43.481Z,998.02
2022-10-31T04:36:43.465Z,998.03
2022-10-31T04:37:43.458Z,998.01
2022-10-31T04:38:43.449Z,998.03
2022-10-31T04:39:43.445Z,998.01
2022-10-31T04:40:43.443Z,998.05
2022-10-31T04:41:43.425Z,998.04
2022-10-31T04:42:43.414Z,998.04
2022-10-31T04:43:43.411Z,998.07
2022-10-31T04:44:43.405Z,998.05
2022-10-31T04:45:43.412Z,998.06
2022-10-31T04:46:43.388Z,998.07
2022-10-31T04:47:43.428Z,998.05
2022-10-31T04:48:44.095Z,998.07
2022-10-31T04:49:43.364Z,998.11
2022-10-31T04:50:43.369Z,998.06
2022-10-31T04:51:43.350Z,998.11
2022-10-31T04:52:43.337Z,998.08
2022-10-31T04:53:43.329Z,998.06
2022-10-31T04:54:43.326Z,998.07
2022-10-31T04:55:43.331Z,998.07
2022-10-31T04:56:43.316Z,998.08
2022-10-31T04:57:43.302Z,998.09
2022-10-31T04:58:43.291Z,998.07
2022-10-31T04:59:43.283Z,998.05
2022-10-31T05:00:43.326Z,998.05
2022-10-31T05:01:43.348Z,998.08
2022-10-31T05:02:44.528Z,998.09
2022-10-31T05:03:44.254Z,998.06
2022-10-31T05:04:43.254Z,998.05
2022-10-31T05:05:43.239Z,998.09
2022-10-31T05:06:43.239Z,998.06
2022-10-31T05:07:43.223Z,998.09
2022-10-31T05:08:43.213Z,998.08
2022-10-31T05:09:43.201Z,998.06
2022-10-31T05:10:43.193Z,998.03
2022-10-31T05:11:43.195Z,998.00
2022-10-31T05:12:43.192Z,998.01
2022-10-31T05:13:43.171Z,997.99
2022-10-31T05:14:46.063Z,997.99
2022-10-31T05:15:44.164Z,997.98
2022-10-31T05:16:43.208Z,997.98
2022-10-31T05:17:43.139Z,997.99
2022-10-31T05:18:43.140Z,998.02
2022-10-31T05:19:44.108Z,998.01
2022-10-31T05:20:43.120Z,997.99
2022-10-31T05:21:43.124Z,998.04
2022-10-31T05:22:43.107Z,998.03
2022-10-31T05:23:45.941Z,998.05
2022-10-31T05:24:45.141Z,997.98
2022-10-31T05:25:43.094Z,998.01
2022-10-31T05:26:43.082Z,998.00
2022-10-31T05:27:43.070Z,998.02
2022-10-31T05:28:43.064Z,998.00
2022-10-31T05:29:43.055Z,998.01
2022-10-31T05:30:43.038Z,998.03
2022-10-31T05:31:43.030Z,998.04
2022-10-31T05:32:43.022Z,998.04
2022-10-31T05:33:43.028Z,998.05
2022-10-31T05:34:43.616Z,998.04
2022-10-31T05:35:43.001Z,998.10
2022-10-31T05:36:42.997Z,998.03
2022-10-31T05:37:42.982Z,998.04
2022-10-31T05:38:42.973Z,998.04
2022-10-31T05:39:44.610Z,997.99
2022-10-31T05:40:42.971Z,998.06
2022-10-31T05:41:43.528Z,998.10
2022-10-31T05:42:42.979Z,998.09
2022-10-31T05:43:42.955Z,998.14
2022-10-31T05:44:42.937Z,998.12
2022-10-31T05:45:42.920Z,998.06
2022-10-31T05:46:43.908Z,998.13
2022-10-31T05:47:44.533Z,998.14
2022-10-31T05:48:42.900Z,998.05
2022-10-31T05:49:42.903Z,998.04
2022-10-31T05:50:42.894Z,998.04
2022-10-31T05:51:42.889Z,998.18
2022-10-31T05:52:43.597Z,998.13
2022-10-31T05:53:43.859Z,998.14
2022-10-31T05:54:42.868Z,998.13
2022-10-31T05:55:42.849Z,998.15
2022-10-31T05:56:42.852Z,998.19
2022-10-31T05:57:42.831Z,998.20
2022-10-31T05:58:42.823Z,998.15
2022-10-31T05:59:43.841Z,998.16
2022-10-31T06:00:42.814Z,998.13
2022-10-31T06:01:42.891Z,998.15
2022-10-31T06:02:42.850Z,998.18
2022-10-31T06:03:42.817Z,998.25
2022-10-31T06:04:42.820Z,998.20
2022-10-31T06:05:43.539Z,998.22
2022-10-31T06:06:42.765Z,998.19
2022-10-31T06:07:42.765Z,998.15
2022-10-31T06:08:45.057Z,998.18
2022-10-31T06:09:46.611Z,998.18
2022-10-31T06:10:42.753Z,998.18
2022-10-31T06:11:42.718Z,998.14
2022-10-31T06:12:42.711Z,998.18
2022-10-31T06:13:43.540Z,998.18
2022-10-31T06:14:42.702Z,998.23
2022-10-31T06:15:42.709Z,998.28
2022-10-31T06:16:44.652Z,998.28
2022-10-31T06:17:47.544Z,998.29
2022-10-31T06:18:42.669Z,998.30
2022-10-31T06:19:42.778Z,998.34
2022-10-31T06:20:45.564Z,998.33
2022-10-31T21:28:45.713Z,992.26
2022-10-31T21:29:45.698Z,992.28
2022-10-31T21:30:45.686Z,992.28
2022-10-31T21:31:45.674Z,992.31
2022-10-31T21:32:45.670Z,992.34
2022-10-31T21:33:45.662Z,992.36
2022-10-31T21:34:45.657Z,992.36
2022-10-31T21:35:45.656Z,992.39
2022-10-31T21:36:45.644Z,992.42
2022-10-31T21:37:45.630Z,992.45
2022-10-31T21:38:45.619Z,992.40
2022-10-31T21:39:50.464Z,992.43
2022-10-31T21:40:46.631Z,992.45
2022-10-31T21:41:45.597Z,992.39
2022-10-31T21:42:45.586Z,992.46
2022-10-31T21:43:45.587Z,992.42
2022-10-31T21:44:45.618Z,992.46
2022-10-31T21:45:45.562Z,992.45
2022-10-31T21:46:45.551Z,992.58
2022-10-31T21:47:45.547Z,992.53
2022-10-31T21:48:46.648Z,992.56
2022-10-31T21:49:46.623Z,992.57
2022-10-31T21:50:46.620Z,992.48
2022-10-31T21:51:46.612Z,992.50
2022-10-31T21:52:46.600Z,992.46
2022-10-31T21:53:46.603Z,992.47
2022-10-31T21:54:48.567Z,992.45
2022-10-31T21:55:46.579Z,992.51
2022-10-31T21:56:46.566Z,992.43
2022-10-31T21:57:47.564Z,992.48
2022-10-31T21:58:46.591Z,992.52
2022-10-31T21:59:46.552Z,992.48
2022-10-31T22:00:46.598Z,992.44
2022-10-31T22:01:46.683Z,992.40
2022-10-31T22:02:46.576Z,992.33
2022-10-31T22:03:46.519Z,992.36
2022-10-31T22:04:46.562Z,992.40
2022-10-31T22:05:46.523Z,992.46
2022-10-31T22:06:48.092Z,992.48
2022-10-31T22:07:50.156Z,992.42
2022-10-31T22:08:46.490Z,992.42
2022-10-31T22:09:48.578Z,992.40
2022-10-31T22:10:48.099Z,992.48
2022-10-31T22:11:47.086Z,992.46
2022-10-31T22:12:52.635Z,992.47
2022-10-31T22:13:46.457Z,992.41
2022-10-31T22:14:46.467Z,992.50
2022-10-31T22:15:50.365Z,992.56
2022-10-31T22:16:48.151Z,992.50
2022-10-31T22:17:46.418Z,992.50
2022-10-31T22:18:46.400Z,992.47
2022-10-31T22:19:46.397Z,992.49
2022-10-31T22:20:46.393Z,992.46
2022-10-31T22:21:47.088Z,992.53
2022-10-31T22:22:46.370Z,992.55
2022-10-31T22:24:54.506Z,992.50
2022-10-31T22:25:55.609Z,992.56
2022-10-31T22:26:58.475Z,992.50
2022-10-31T22:27:58.627Z,992.48
2022-10-31T22:28:55.610Z,992.44
2022-10-31T22:29:59.393Z,992.36
2022-10-31T22:30:55.558Z,992.35
2022-10-31T22:31:59.633Z,992.33
2022-10-31T22:32:56.522Z,992.34
2022-10-31T22:33:56.561Z,992.42
2022-10-31T22:34:55.518Z,992.33
2022-10-31T22:35:55.546Z,992.31
2022-10-31T22:36:55.505Z,992.36
2022-10-31T22:37:55.492Z,992.39
2022-10-31T22:38:55.487Z,992.37
2022-10-31T22:39:55.466Z,992.39
2022-10-31T22:40:58.445Z,992.37
2022-10-31T22:41:55.470Z,992.36
2022-10-31T22:42:55.454Z,992.36
2022-10-31T22:43:55.453Z,992.43
2022-10-31T22:44:55.440Z,992.31
2022-10-31T22:45:55.432Z,992.27
2022-10-31T22:46:55.435Z,992.29
2022-10-31T22:47:55.431Z,992.25
2022-10-31T22:48:55.418Z,992.24
2022-10-31T22:49:55.404Z,992.21
2022-10-31T22:50:56.386Z,992.20
2022-10-31T22:51:55.395Z,992.16
2022-10-31T22:52:55.375Z,992.14
2022-10-31T22:53:55.378Z,992.13
2022-10-31T22:54:58.388Z,992.18
2022-10-31T22:55:56.354Z,992.19
2022-10-31T22:56:55.355Z,992.16
2022-10-31T22:57:55.345Z,992.17
2022-10-31T22:58:56.338Z,992.19
2022-10-31T22:59:55.335Z,992.16
2022-10-31T23:00:55.911Z,992.14
2022-10-31T23:01:55.478Z,992.10
2022-10-31T23:02:55.881Z,992.13
2022-10-31T23:03:56.006Z,992.14
2022-10-31T23:04:55.284Z,992.14
2022-10-31T23:05:55.278Z,992.14
2022-10-31T23:06:55.266Z,992.10
2022-10-31T23:07:55.274Z,992.15
2022-10-31T23:08:55.254Z,992.16
2022-10-31T23:09:55.248Z,992.26
2022-10-31T23:10:55.966Z,992.21
2022-10-31T23:11:55.229Z,992.19
2022-10-31T23:12:55.235Z,992.22
2022-10-31T23:13:55.223Z,992.26
2022-10-31T23:14:55.207Z,992.28
2022-10-31T23:15:55.215Z,992.28
2022-10-31T23:16:55.190Z,992.26
2022-10-31T23:17:55.195Z,992.17
2022-10-31T23:18:55.180Z,992.24
2022-10-31T23:19:55.888Z,992.11
2022-10-31T23:20:55.156Z,992.09
2022-10-31T23:21:55.386Z,992.15
2022-10-31T23:22:55.152Z,992.07
2022-10-31T23:23:55.881Z,992.13
2022-10-31T23:24:55.130Z,992.05
2022-10-31T23:25:55.119Z,992.00
2022-10-31T23:26:55.115Z,992.05
2022-10-31T23:27:55.108Z,992.02
2022-10-31T23:28:55.161Z,992.06
2022-10-31T23:29:55.090Z,992.01
2022-10-31T23:30:55.888Z,992.04
2022-10-31T23:31:55.077Z,991.97
2022-10-31T23:32:55.069Z,992.03
2022-10-31T23:33:55.065Z,991.94
2022-10-31T23:34:55.056Z,991.99
2022-10-31T23:35:55.045Z,991.97
2022-10-31T23:36:55.087Z,991.99
2022-10-31T23:37:56.033Z,992.04
2022-10-31T23:38:55.022Z,992.03
2022-10-31T23:39:55.024Z,992.07
2022-10-31T23:40:55.011Z,991.97
2022-10-31T23:41:55.000Z,991.99
2022-10-31T23:42:54.989Z,991.99
2022-10-31T23:43:56.893Z,991.96
2022-10-31T23:44:54.999Z,992.00
2022-10-31T23:45:54.964Z,991.86
2022-10-31T23:46:54.952Z,991.95
2022-10-31T23:47:54.964Z,991.90
2022-10-31T23:48:54.939Z,991.91
2022-10-31T23:49:54.948Z,991.90
2022-10-31T23:50:54.925Z,991.85
2022-10-31T23:51:54.912Z,991.77
2022-10-31T23:52:54.908Z,991.76
2022-10-31T23:53:59.478Z,991.76
2022-10-31T23:54:54.974Z,991.74
2022-10-31T23:55:54.893Z,991.81
2022-10-31T23:56:54.884Z,991.70
2022-10-31T23:57:54.874Z,991.72
2022-10-31T23:58:54.874Z,991.72
2022-10-31T23:59:54.865Z,991.72
